This is the latest recevied weather packets stored in our database for station/object DM4RS-1. If no packets are shown the sender has not sent any weather packets the latest 10 day(s).
| Time | Temp. | Humidity | Pressure | Rain* | Wind** | Luminosity | Snow |
|---|---|---|---|---|---|---|---|
| 1777629409 | 22.78° C | 39% | 1030.6 hPa | - | - | - | - |
| 1777628809 | 22.22° C | 39% | 1031.5 hPa | - | - | - | - |
| 1777628208 | 22.22° C | 40% | 1031.8 hPa | - | - | - | - |
| 1777627608 | 21.67° C | 40% | 1031.7 hPa | - | - | - | - |
| 1777626408 | 21.11° C | 42% | 1032.3 hPa | - | - | - | - |
| 1777625808 | 21.11° C | 43% | 1030.9 hPa | - | - | - | - |
| 1777625208 | 20.56° C | 44% | 1030.4 hPa | - | - | - | - |
| 1777624607 | 20.56° C | 45% | 1030.9 hPa | - | - | - | - |
| 1777624007 | 20° C | 46% | 1030.6 hPa | - | - | - | - |
| 1777623407 | 19.44° C | 47% | 1030.9 hPa | - | - | - | - |
| 1777622807 | 18.89° C | 49% | 1031 hPa | - | - | - | - |
| 1777622207 | 18.33° C | 49% | 1031.1 hPa | - | - | - | - |
| 1777619805 | 16.11° C | 55% | 1031.6 hPa | - | - | - | - |
| 1777619205 | 15.56° C | 56% | 1031.1 hPa | - | - | - | - |
| 1777618605 | 14.44° C | 58% | 1031.7 hPa | - | - | - | - |
| 1777618005 | 13.89° C | 58% | 1030.9 hPa | - | - | - | - |
| 1777617405 | 13.33° C | 60% | 1031.4 hPa | - | - | - | - |
| 1777616806 | 12.22° C | 61% | 1030.9 hPa | - | - | - | - |
| 1777616205 | 11.11° C | 62% | 1031.3 hPa | - | - | - | - |
| 1777615605 | 10.56° C | 63% | 1030.9 hPa | - | - | - | - |
| 1777615005 | 9.44° C | 66% | 1030 hPa | - | - | - | - |
| 1777613805 | 7.22° C | 68% | 1030.9 hPa | - | - | - | - |
| 1777613205 | 6.67° C | 68% | 1033.3 hPa | - | - | - | - |
| 1777612605 | 6.11° C | 65% | 1032.9 hPa | - | - | - | - |
| 1777612004 | 5.56° C | 63% | 1031.7 hPa | - | - | - | - |
* Rain since midnight (hover to see other rain measurements)
** Current wind speed in m/s (hover to see current wind gust speed)